sensor_id;sensor_type;location;lat;lon;timestamp;temperature;humidity
70762;DHT22;58360;0.000;0.000;2023-04-25T00:00:52;10.70;80.90
70762;DHT22;58360;0.000;0.000;2023-04-25T00:03:18;10.40;80.90
70762;DHT22;58360;0.000;0.000;2023-04-25T00:05:44;10.30;82.10
70762;DHT22;58360;0.000;0.000;2023-04-25T00:08:11;10.10;82.80
70762;DHT22;58360;0.000;0.000;2023-04-25T00:10:36;9.90;83.60
70762;DHT22;58360;0.000;0.000;2023-04-25T00:13:02;9.70;84.70
70762;DHT22;58360;0.000;0.000;2023-04-25T00:15:28;10.00;84.10
70762;DHT22;58360;0.000;0.000;2023-04-25T00:17:56;10.10;83.30
70762;DHT22;58360;0.000;0.000;2023-04-25T00:20:22;10.20;82.90
70762;DHT22;58360;0.000;0.000;2023-04-25T00:22:49;10.20;83.10
70762;DHT22;58360;0.000;0.000;2023-04-25T00:25:14;10.20;83.50
70762;DHT22;58360;0.000;0.000;2023-04-25T00:27:40;10.40;82.80
70762;DHT22;58360;0.000;0.000;2023-04-25T00:30:07;10.50;82.00
70762;DHT22;58360;0.000;0.000;2023-04-25T00:32:33;10.50;81.70
70762;DHT22;58360;0.000;0.000;2023-04-25T00:34:59;10.30;82.70
70762;DHT22;58360;0.000;0.000;2023-04-25T00:37:25;10.00;84.20
70762;DHT22;58360;0.000;0.000;2023-04-25T00:39:51;9.90;84.70
70762;DHT22;58360;0.000;0.000;2023-04-25T00:42:19;10.20;84.10
70762;DHT22;58360;0.000;0.000;2023-04-25T00:44:45;10.50;82.50
70762;DHT22;58360;0.000;0.000;2023-04-25T00:47:11;10.30;82.90
70762;DHT22;58360;0.000;0.000;2023-04-25T00:49:37;10.00;84.10
70762;DHT22;58360;0.000;0.000;2023-04-25T00:52:02;10.10;84.20
70762;DHT22;58360;0.000;0.000;2023-04-25T00:54:28;10.10;84.40
70762;DHT22;58360;0.000;0.000;2023-04-25T00:56:55;10.10;83.60
70762;DHT22;58360;0.000;0.000;2023-04-25T00:59:21;9.90;84.50
70762;DHT22;58360;0.000;0.000;2023-04-25T01:01:47;9.80;85.60
70762;DHT22;58360;0.000;0.000;2023-04-25T01:04:13;9.90;85.10
70762;DHT22;58360;0.000;0.000;2023-04-25T01:06:39;9.90;85.10
70762;DHT22;58360;0.000;0.000;2023-04-25T01:09:05;9.90;85.40
70762;DHT22;58360;0.000;0.000;2023-04-25T01:11:31;10.00;84.50
70762;DHT22;58360;0.000;0.000;2023-04-25T01:13:57;10.20;84.20
70762;DHT22;58360;0.000;0.000;2023-04-25T01:16:23;10.10;83.50
70762;DHT22;58360;0.000;0.000;2023-04-25T01:18:50;10.00;84.30
70762;DHT22;58360;0.000;0.000;2023-04-25T01:21:16;9.80;85.00
70762;DHT22;58360;0.000;0.000;2023-04-25T01:23:42;9.90;85.10
70762;DHT22;58360;0.000;0.000;2023-04-25T01:26:09;9.90;84.70
70762;DHT22;58360;0.000;0.000;2023-04-25T01:28:36;9.80;85.40
70762;DHT22;58360;0.000;0.000;2023-04-25T01:31:02;9.90;84.40
70762;DHT22;58360;0.000;0.000;2023-04-25T01:33:29;9.80;84.90
70762;DHT22;58360;0.000;0.000;2023-04-25T01:35:55;9.90;84.50
70762;DHT22;58360;0.000;0.000;2023-04-25T01:38:20;9.90;83.90
70762;DHT22;58360;0.000;0.000;2023-04-25T01:40:46;9.60;84.50
70762;DHT22;58360;0.000;0.000;2023-04-25T01:43:14;9.60;84.70
70762;DHT22;58360;0.000;0.000;2023-04-25T01:45:43;9.60;84.60
70762;DHT22;58360;0.000;0.000;2023-04-25T01:48:12;9.50;84.90
70762;DHT22;58360;0.000;0.000;2023-04-25T01:50:39;9.70;84.70
70762;DHT22;58360;0.000;0.000;2023-04-25T01:53:05;9.70;84.60
70762;DHT22;58360;0.000;0.000;2023-04-25T01:55:31;9.90;83.60
70762;DHT22;58360;0.000;0.000;2023-04-25T01:57:57;9.70;83.90
70762;DHT22;58360;0.000;0.000;2023-04-25T02:00:22;9.70;84.20
70762;DHT22;58360;0.000;0.000;2023-04-25T02:02:48;10.00;82.80
70762;DHT22;58360;0.000;0.000;2023-04-25T02:05:16;9.90;82.60
70762;DHT22;58360;0.000;0.000;2023-04-25T02:07:42;9.90;83.20
70762;DHT22;58360;0.000;0.000;2023-04-25T02:10:08;10.00;83.10
70762;DHT22;58360;0.000;0.000;2023-04-25T02:12:35;10.00;82.90
70762;DHT22;58360;0.000;0.000;2023-04-25T02:15:01;9.90;82.90
70762;DHT22;58360;0.000;0.000;2023-04-25T02:17:27;10.00;83.00
70762;DHT22;58360;0.000;0.000;2023-04-25T02:19:53;10.00;82.50
70762;DHT22;58360;0.000;0.000;2023-04-25T02:22:18;10.20;81.80
70762;DHT22;58360;0.000;0.000;2023-04-25T02:24:44;10.20;81.60
70762;DHT22;58360;0.000;0.000;2023-04-25T02:27:09;9.80;82.50
70762;DHT22;58360;0.000;0.000;2023-04-25T02:29:35;10.00;82.10
70762;DHT22;58360;0.000;0.000;2023-04-25T02:32:01;9.60;83.40
70762;DHT22;58360;0.000;0.000;2023-04-25T02:34:26;9.50;84.30
70762;DHT22;58360;0.000;0.000;2023-04-25T02:36:52;9.60;83.80
70762;DHT22;58360;0.000;0.000;2023-04-25T02:39:18;9.70;83.30
70762;DHT22;58360;0.000;0.000;2023-04-25T02:41:44;10.00;82.70
70762;DHT22;58360;0.000;0.000;2023-04-25T02:44:10;10.10;82.90
70762;DHT22;58360;0.000;0.000;2023-04-25T02:46:35;9.90;83.60
70762;DHT22;58360;0.000;0.000;2023-04-25T02:49:01;10.10;83.40
70762;DHT22;58360;0.000;0.000;2023-04-25T02:51:27;10.10;83.50
70762;DHT22;58360;0.000;0.000;2023-04-25T02:53:52;9.70;85.10
70762;DHT22;58360;0.000;0.000;2023-04-25T02:56:18;9.80;85.90
70762;DHT22;58360;0.000;0.000;2023-04-25T02:58:43;9.90;85.50
70762;DHT22;58360;0.000;0.000;2023-04-25T03:01:10;9.70;86.80
70762;DHT22;58360;0.000;0.000;2023-04-25T03:03:36;9.60;87.30
70762;DHT22;58360;0.000;0.000;2023-04-25T03:06:01;9.50;87.50
70762;DHT22;58360;0.000;0.000;2023-04-25T03:08:27;9.20;88.30
70762;DHT22;58360;0.000;0.000;2023-04-25T03:10:58;8.90;89.60
70762;DHT22;58360;0.000;0.000;2023-04-25T03:13:24;9.00;90.50
70762;DHT22;58360;0.000;0.000;2023-04-25T03:15:49;8.90;89.40
70762;DHT22;58360;0.000;0.000;2023-04-25T03:18:15;8.90;90.50
70762;DHT22;58360;0.000;0.000;2023-04-25T03:20:41;9.00;90.00
70762;DHT22;58360;0.000;0.000;2023-04-25T03:23:07;8.90;89.60
70762;DHT22;58360;0.000;0.000;2023-04-25T03:25:33;8.90;90.00
70762;DHT22;58360;0.000;0.000;2023-04-25T03:27:58;8.80;91.00
70762;DHT22;58360;0.000;0.000;2023-04-25T03:30:24;8.60;91.40
70762;DHT22;58360;0.000;0.000;2023-04-25T03:32:49;8.60;90.80
70762;DHT22;58360;0.000;0.000;2023-04-25T03:35:15;8.80;90.10
70762;DHT22;58360;0.000;0.000;2023-04-25T03:37:41;8.80;90.20
70762;DHT22;58360;0.000;0.000;2023-04-25T03:40:10;9.00;90.30
70762;DHT22;58360;0.000;0.000;2023-04-25T03:42:36;9.20;89.30
70762;DHT22;58360;0.000;0.000;2023-04-25T03:45:02;9.20;89.20
70762;DHT22;58360;0.000;0.000;2023-04-25T03:47:28;9.00;89.00
70762;DHT22;58360;0.000;0.000;2023-04-25T03:49:53;8.90;89.50
70762;DHT22;58360;0.000;0.000;2023-04-25T03:52:19;9.10;89.70
70762;DHT22;58360;0.000;0.000;2023-04-25T03:54:45;9.10;90.00
70762;DHT22;58360;0.000;0.000;2023-04-25T03:57:10;9.20;89.70
70762;DHT22;58360;0.000;0.000;2023-04-25T03:59:36;9.30;88.80
70762;DHT22;58360;0.000;0.000;2023-04-25T04:02:02;9.30;88.80
70762;DHT22;58360;0.000;0.000;2023-04-25T04:04:27;9.40;88.40
70762;DHT22;58360;0.000;0.000;2023-04-25T04:06:53;9.40;88.30
70762;DHT22;58360;0.000;0.000;2023-04-25T04:09:19;9.10;88.00
70762;DHT22;58360;0.000;0.000;2023-04-25T04:11:45;9.10;89.50
70762;DHT22;58360;0.000;0.000;2023-04-25T04:14:11;9.20;88.90
70762;DHT22;58360;0.000;0.000;2023-04-25T04:16:37;9.00;88.80
70762;DHT22;58360;0.000;0.000;2023-04-25T04:19:03;8.90;89.90
70762;DHT22;58360;0.000;0.000;2023-04-25T04:21:28;9.10;89.20
70762;DHT22;58360;0.000;0.000;2023-04-25T04:23:54;9.30;88.30
70762;DHT22;58360;0.000;0.000;2023-04-25T04:26:20;9.40;87.80
70762;DHT22;58360;0.000;0.000;2023-04-25T04:28:52;9.50;87.20
70762;DHT22;58360;0.000;0.000;2023-04-25T04:31:23;9.40;87.70
70762;DHT22;58360;0.000;0.000;2023-04-25T04:33:49;9.50;86.30
70762;DHT22;58360;0.000;0.000;2023-04-25T04:36:15;9.30;87.60
70762;DHT22;58360;0.000;0.000;2023-04-25T04:38:41;9.00;88.50
70762;DHT22;58360;0.000;0.000;2023-04-25T04:41:07;9.00;89.20
70762;DHT22;58360;0.000;0.000;2023-04-25T04:43:33;9.00;89.10
70762;DHT22;58360;0.000;0.000;2023-04-25T04:46:02;9.30;88.20
70762;DHT22;58360;0.000;0.000;2023-04-25T04:48:30;9.40;87.00
70762;DHT22;58360;0.000;0.000;2023-04-25T04:50:58;9.50;86.50
70762;DHT22;58360;0.000;0.000;2023-04-25T04:53:23;9.60;85.80
70762;DHT22;58360;0.000;0.000;2023-04-25T04:55:49;9.40;85.50
70762;DHT22;58360;0.000;0.000;2023-04-25T04:58:15;9.10;87.00
70762;DHT22;58360;0.000;0.000;2023-04-25T05:00:41;9.20;87.00
70762;DHT22;58360;0.000;0.000;2023-04-25T05:03:06;9.10;87.30
70762;DHT22;58360;0.000;0.000;2023-04-25T05:05:32;9.00;88.10
70762;DHT22;58360;0.000;0.000;2023-04-25T05:07:58;9.20;87.30
70762;DHT22;58360;0.000;0.000;2023-04-25T05:10:23;9.10;86.90
70762;DHT22;58360;0.000;0.000;2023-04-25T05:12:49;9.00;86.70
70762;DHT22;58360;0.000;0.000;2023-04-25T05:15:15;9.00;86.10
70762;DHT22;58360;0.000;0.000;2023-04-25T05:17:40;9.00;86.00
70762;DHT22;58360;0.000;0.000;2023-04-25T05:20:07;8.60;86.70
70762;DHT22;58360;0.000;0.000;2023-04-25T05:22:34;8.80;87.10
70762;DHT22;58360;0.000;0.000;2023-04-25T05:25:00;8.90;86.70
70762;DHT22;58360;0.000;0.000;2023-04-25T05:27:26;9.10;85.40
70762;DHT22;58360;0.000;0.000;2023-04-25T05:29:52;9.10;84.30
70762;DHT22;58360;0.000;0.000;2023-04-25T05:32:18;9.10;85.40
70762;DHT22;58360;0.000;0.000;2023-04-25T05:34:43;9.30;84.70
70762;DHT22;58360;0.000;0.000;2023-04-25T05:37:09;9.30;83.90
70762;DHT22;58360;0.000;0.000;2023-04-25T05:39:35;9.40;83.40
70762;DHT22;58360;0.000;0.000;2023-04-25T05:42:01;9.50;82.60
70762;DHT22;58360;0.000;0.000;2023-04-25T05:44:27;9.40;83.40
70762;DHT22;58360;0.000;0.000;2023-04-25T05:46:53;9.50;82.00
70762;DHT22;58360;0.000;0.000;2023-04-25T05:49:19;9.50;82.00
70762;DHT22;58360;0.000;0.000;2023-04-25T05:51:44;9.50;82.70
70762;DHT22;58360;0.000;0.000;2023-04-25T05:54:10;9.60;82.80
70762;DHT22;58360;0.000;0.000;2023-04-25T05:56:36;9.60;82.00
70762;DHT22;58360;0.000;0.000;2023-04-25T05:59:01;9.90;80.70
70762;DHT22;58360;0.000;0.000;2023-04-25T06:01:27;9.70;80.60
70762;DHT22;58360;0.000;0.000;2023-04-25T06:03:53;9.70;81.30
70762;DHT22;58360;0.000;0.000;2023-04-25T06:06:18;9.70;80.90
70762;DHT22;58360;0.000;0.000;2023-04-25T06:08:44;9.70;81.70
70762;DHT22;58360;0.000;0.000;2023-04-25T06:11:10;9.40;82.80
70762;DHT22;58360;0.000;0.000;2023-04-25T06:13:36;9.30;82.70
70762;DHT22;58360;0.000;0.000;2023-04-25T06:16:02;9.00;84.00
70762;DHT22;58360;0.000;0.000;2023-04-25T06:18:27;9.20;84.20
70762;DHT22;58360;0.000;0.000;2023-04-25T06:20:53;9.20;83.60
70762;DHT22;58360;0.000;0.000;2023-04-25T06:23:19;9.20;84.00
70762;DHT22;58360;0.000;0.000;2023-04-25T06:25:45;9.60;82.90
70762;DHT22;58360;0.000;0.000;2023-04-25T06:28:10;9.40;82.50
70762;DHT22;58360;0.000;0.000;2023-04-25T06:30:36;9.50;82.90
70762;DHT22;58360;0.000;0.000;2023-04-25T06:33:01;9.80;82.20
70762;DHT22;58360;0.000;0.000;2023-04-25T06:35:27;10.20;79.70
70762;DHT22;58360;0.000;0.000;2023-04-25T06:37:53;10.30;79.20
70762;DHT22;58360;0.000;0.000;2023-04-25T06:40:18;10.50;79.10
70762;DHT22;58360;0.000;0.000;2023-04-25T06:42:44;10.30;78.30
70762;DHT22;58360;0.000;0.000;2023-04-25T06:45:10;10.40;77.80
70762;DHT22;58360;0.000;0.000;2023-04-25T06:47:35;10.40;75.80
70762;DHT22;58360;0.000;0.000;2023-04-25T06:50:01;10.40;77.40
70762;DHT22;58360;0.000;0.000;2023-04-25T06:52:27;10.80;77.20
70762;DHT22;58360;0.000;0.000;2023-04-25T06:54:53;10.80;74.90
70762;DHT22;58360;0.000;0.000;2023-04-25T06:57:18;10.70;74.90
70762;DHT22;58360;0.000;0.000;2023-04-25T06:59:44;11.10;73.90
70762;DHT22;58360;0.000;0.000;2023-04-25T07:02:10;11.50;72.00
70762;DHT22;58360;0.000;0.000;2023-04-25T07:04:35;11.50;72.00
70762;DHT22;58360;0.000;0.000;2023-04-25T07:07:01;11.40;72.70
70762;DHT22;58360;0.000;0.000;2023-04-25T07:09:29;11.30;72.60
70762;DHT22;58360;0.000;0.000;2023-04-25T07:11:55;10.60;73.90
70762;DHT22;58360;0.000;0.000;2023-04-25T07:14:21;10.20;76.30
70762;DHT22;58360;0.000;0.000;2023-04-25T07:16:47;10.10;76.30
70762;DHT22;58360;0.000;0.000;2023-04-25T07:19:13;10.00;76.10
70762;DHT22;58360;0.000;0.000;2023-04-25T07:21:39;10.00;76.00
70762;DHT22;58360;0.000;0.000;2023-04-25T07:24:05;10.00;75.00
70762;DHT22;58360;0.000;0.000;2023-04-25T07:26:30;10.20;75.20
70762;DHT22;58360;0.000;0.000;2023-04-25T07:28:56;10.40;75.10
70762;DHT22;58360;0.000;0.000;2023-04-25T07:31:22;10.50;75.00
70762;DHT22;58360;0.000;0.000;2023-04-25T07:33:48;10.60;74.40
70762;DHT22;58360;0.000;0.000;2023-04-25T07:36:13;11.00;73.50
70762;DHT22;58360;0.000;0.000;2023-04-25T07:38:40;10.90;72.50
70762;DHT22;58360;0.000;0.000;2023-04-25T07:41:06;11.40;71.80
70762;DHT22;58360;0.000;0.000;2023-04-25T07:43:32;12.00;67.40
70762;DHT22;58360;0.000;0.000;2023-04-25T07:45:57;12.30;66.60
70762;DHT22;58360;0.000;0.000;2023-04-25T07:48:23;12.50;66.10
70762;DHT22;58360;0.000;0.000;2023-04-25T07:50:49;13.00;64.20
70762;DHT22;58360;0.000;0.000;2023-04-25T07:53:15;13.70;62.30
70762;DHT22;58360;0.000;0.000;2023-04-25T07:55:41;14.20;61.20
70762;DHT22;58360;0.000;0.000;2023-04-25T07:58:11;14.10;59.80
70762;DHT22;58360;0.000;0.000;2023-04-25T08:00:36;14.20;58.00
70762;DHT22;58360;0.000;0.000;2023-04-25T08:03:03;14.00;59.40
70762;DHT22;58360;0.000;0.000;2023-04-25T08:05:29;14.10;59.10
70762;DHT22;58360;0.000;0.000;2023-04-25T08:07:55;14.00;59.90
70762;DHT22;58360;0.000;0.000;2023-04-25T08:10:22;13.90;59.10
70762;DHT22;58360;0.000;0.000;2023-04-25T08:12:48;13.60;59.90
70762;DHT22;58360;0.000;0.000;2023-04-25T08:15:14;13.70;60.30
70762;DHT22;58360;0.000;0.000;2023-04-25T08:17:39;13.10;62.40
70762;DHT22;58360;0.000;0.000;2023-04-25T08:20:06;12.40;63.00
70762;DHT22;58360;0.000;0.000;2023-04-25T08:22:32;12.20;63.40
70762;DHT22;58360;0.000;0.000;2023-04-25T08:24:57;12.60;66.00
70762;DHT22;58360;0.000;0.000;2023-04-25T08:27:23;14.70;60.50
70762;DHT22;58360;0.000;0.000;2023-04-25T08:29:49;17.00;53.20
70762;DHT22;58360;0.000;0.000;2023-04-25T08:32:16;18.60;48.60
70762;DHT22;58360;0.000;0.000;2023-04-25T08:34:42;16.20;51.00
70762;DHT22;58360;0.000;0.000;2023-04-25T08:37:09;14.60;54.40
70762;DHT22;58360;0.000;0.000;2023-04-25T08:39:36;13.60;58.80
70762;DHT22;58360;0.000;0.000;2023-04-25T08:42:03;13.50;58.70
70762;DHT22;58360;0.000;0.000;2023-04-25T08:44:36;13.40;59.30
70762;DHT22;58360;0.000;0.000;2023-04-25T08:47:05;13.00;61.30
70762;DHT22;58360;0.000;0.000;2023-04-25T08:49:34;13.00;62.70
70762;DHT22;58360;0.000;0.000;2023-04-25T08:52:02;11.90;65.80
70762;DHT22;58360;0.000;0.000;2023-04-25T08:54:31;11.00;68.30
70762;DHT22;58360;0.000;0.000;2023-04-25T08:56:57;11.10;70.50
70762;DHT22;58360;0.000;0.000;2023-04-25T08:59:25;11.50;69.20
70762;DHT22;58360;0.000;0.000;2023-04-25T09:01:51;12.30;66.50
70762;DHT22;58360;0.000;0.000;2023-04-25T09:04:18;14.00;64.50
70762;DHT22;58360;0.000;0.000;2023-04-25T09:06:44;17.00;57.40
70762;DHT22;58360;0.000;0.000;2023-04-25T09:09:10;19.50;51.60
70762;DHT22;58360;0.000;0.000;2023-04-25T09:11:36;20.60;46.30
70762;DHT22;58360;0.000;0.000;2023-04-25T09:16:58;21.80;44.60
70762;DHT22;58360;0.000;0.000;2023-04-25T09:19:32;22.40;41.20
70762;DHT22;58360;0.000;0.000;2023-04-25T09:22:02;22.40;40.90
70762;DHT22;58360;0.000;0.000;2023-04-25T09:24:33;22.40;40.20
70762;DHT22;58360;0.000;0.000;2023-04-25T09:26:59;20.80;43.30
70762;DHT22;58360;0.000;0.000;2023-04-25T09:29:35;20.00;45.00
70762;DHT22;58360;0.000;0.000;2023-04-25T09:32:12;20.00;45.10
70762;DHT22;58360;0.000;0.000;2023-04-25T09:34:48;21.60;42.70
70762;DHT22;58360;0.000;0.000;2023-04-25T09:39:46;21.80;40.10
70762;DHT22;58360;0.000;0.000;2023-04-25T09:42:14;22.20;41.00
70762;DHT22;58360;0.000;0.000;2023-04-25T09:44:45;21.40;39.10
70762;DHT22;58360;0.000;0.000;2023-04-25T09:47:13;22.60;36.80
70762;DHT22;58360;0.000;0.000;2023-04-25T09:49:40;22.50;35.90
70762;DHT22;58360;0.000;0.000;2023-04-25T09:52:07;22.90;35.70
70762;DHT22;58360;0.000;0.000;2023-04-25T09:54:33;24.00;36.00
70762;DHT22;58360;0.000;0.000;2023-04-25T09:57:04;23.90;35.60
70762;DHT22;58360;0.000;0.000;2023-04-25T09:59:34;22.20;37.10
70762;DHT22;58360;0.000;0.000;2023-04-25T10:02:03;19.80;40.70
70762;DHT22;58360;0.000;0.000;2023-04-25T10:04:34;19.70;42.40
70762;DHT22;58360;0.000;0.000;2023-04-25T10:07:05;18.20;44.70
70762;DHT22;58360;0.000;0.000;2023-04-25T10:09:32;18.60;42.80
70762;DHT22;58360;0.000;0.000;2023-04-25T10:12:01;17.40;45.50
70762;DHT22;58360;0.000;0.000;2023-04-25T10:14:30;17.40;45.00
70762;DHT22;58360;0.000;0.000;2023-04-25T10:16:57;16.50;46.30
70762;DHT22;58360;0.000;0.000;2023-04-25T10:19:24;16.50;44.30
70762;DHT22;58360;0.000;0.000;2023-04-25T10:24:23;16.50;45.80
70762;DHT22;58360;0.000;0.000;2023-04-25T10:26:49;17.50;45.70
70762;DHT22;58360;0.000;0.000;2023-04-25T10:29:22;20.30;40.60
70762;DHT22;58360;0.000;0.000;2023-04-25T10:31:49;22.80;36.60
70762;DHT22;58360;0.000;0.000;2023-04-25T10:34:16;22.20;37.10
70762;DHT22;58360;0.000;0.000;2023-04-25T10:36:42;22.70;35.60
70762;DHT22;58360;0.000;0.000;2023-04-25T10:39:08;21.70;36.50
70762;DHT22;58360;0.000;0.000;2023-04-25T10:41:52;20.00;39.50
70762;DHT22;58360;0.000;0.000;2023-04-25T10:44:18;20.10;38.80
70762;DHT22;58360;0.000;0.000;2023-04-25T10:46:44;18.40;41.10
70762;DHT22;58360;0.000;0.000;2023-04-25T10:49:37;17.70;44.60
70762;DHT22;58360;0.000;0.000;2023-04-25T10:52:14;17.20;48.50
70762;DHT22;58360;0.000;0.000;2023-04-25T10:55:06;17.00;49.20
70762;DHT22;58360;0.000;0.000;2023-04-25T10:57:44;15.30;52.80
70762;DHT22;58360;0.000;0.000;2023-04-25T11:00:19;14.90;53.30
70762;DHT22;58360;0.000;0.000;2023-04-25T11:02:48;14.90;52.40
70762;DHT22;58360;0.000;0.000;2023-04-25T11:07:55;14.90;51.60
70762;DHT22;58360;0.000;0.000;2023-04-25T11:10:31;14.80;49.00
70762;DHT22;58360;0.000;0.000;2023-04-25T11:12:58;15.00;52.70
70762;DHT22;58360;0.000;0.000;2023-04-25T11:15:24;15.50;51.10
70762;DHT22;58360;0.000;0.000;2023-04-25T11:17:54;16.30;49.00
70762;DHT22;58360;0.000;0.000;2023-04-25T11:20:20;17.00;47.60
70762;DHT22;58360;0.000;0.000;2023-04-25T11:22:46;18.40;46.60
70762;DHT22;58360;0.000;0.000;2023-04-25T11:25:14;19.90;42.50
70762;DHT22;58360;0.000;0.000;2023-04-25T11:27:53;20.90;38.90
70762;DHT22;58360;0.000;0.000;2023-04-25T11:30:19;21.40;39.70
70762;DHT22;58360;0.000;0.000;2023-04-25T11:32:48;20.80;37.60
70762;DHT22;58360;0.000;0.000;2023-04-25T11:35:14;21.30;37.80
70762;DHT22;58360;0.000;0.000;2023-04-25T11:37:44;20.70;37.50
70762;DHT22;58360;0.000;0.000;2023-04-25T11:40:11;22.40;36.60
70762;DHT22;58360;0.000;0.000;2023-04-25T11:42:38;24.70;33.40
70762;DHT22;58360;0.000;0.000;2023-04-25T11:45:05;26.00;31.20
70762;DHT22;58360;0.000;0.000;2023-04-25T11:47:32;23.80;34.90
70762;DHT22;58360;0.000;0.000;2023-04-25T11:49:59;23.20;35.40
70762;DHT22;58360;0.000;0.000;2023-04-25T11:55:08;19.30;37.30
70762;DHT22;58360;0.000;0.000;2023-04-25T11:57:34;18.00;42.40
70762;DHT22;58360;0.000;0.000;2023-04-25T12:00:10;18.50;40.50
70762;DHT22;58360;0.000;0.000;2023-04-25T12:02:37;18.20;41.70
70762;DHT22;58360;0.000;0.000;2023-04-25T12:05:06;19.40;39.00
70762;DHT22;58360;0.000;0.000;2023-04-25T12:07:34;20.60;39.70
70762;DHT22;58360;0.000;0.000;2023-04-25T12:10:03;21.40;37.90
70762;DHT22;58360;0.000;0.000;2023-04-25T12:12:32;21.00;37.80
70762;DHT22;58360;0.000;0.000;2023-04-25T12:15:09;21.00;38.80
70762;DHT22;58360;0.000;0.000;2023-04-25T12:17:35;19.40;39.70
70762;DHT22;58360;0.000;0.000;2023-04-25T12:20:26;18.40;42.50
70762;DHT22;58360;0.000;0.000;2023-04-25T12:22:52;17.50;44.40
70762;DHT22;58360;0.000;0.000;2023-04-25T12:25:45;17.30;44.80
70762;DHT22;58360;0.000;0.000;2023-04-25T12:28:20;17.10;41.80
70762;DHT22;58360;0.000;0.000;2023-04-25T12:31:12;16.70;44.10
70762;DHT22;58360;0.000;0.000;2023-04-25T12:33:40;16.80;46.00
70762;DHT22;58360;0.000;0.000;2023-04-25T12:36:07;17.80;43.20
70762;DHT22;58360;0.000;0.000;2023-04-25T12:38:40;19.00;42.10
70762;DHT22;58360;0.000;0.000;2023-04-25T12:41:06;19.70;38.10
70762;DHT22;58360;0.000;0.000;2023-04-25T12:43:32;19.00;38.10
70762;DHT22;58360;0.000;0.000;2023-04-25T12:45:58;19.80;38.80
70762;DHT22;58360;0.000;0.000;2023-04-25T12:48:24;20.20;37.40
70762;DHT22;58360;0.000;0.000;2023-04-25T12:50:50;21.30;36.20
70762;DHT22;58360;0.000;0.000;2023-04-25T12:53:18;22.50;35.50
70762;DHT22;58360;0.000;0.000;2023-04-25T12:55:44;23.70;34.80
70762;DHT22;58360;0.000;0.000;2023-04-25T12:58:17;24.50;32.50
70762;DHT22;58360;0.000;0.000;2023-04-25T13:00:44;25.00;30.90
70762;DHT22;58360;0.000;0.000;2023-04-25T13:03:10;24.00;32.80
70762;DHT22;58360;0.000;0.000;2023-04-25T13:05:39;23.40;32.60
70762;DHT22;58360;0.000;0.000;2023-04-25T13:08:05;23.10;32.40
70762;DHT22;58360;0.000;0.000;2023-04-25T13:10:30;24.10;31.60
70762;DHT22;58360;0.000;0.000;2023-04-25T13:12:56;24.40;30.60
70762;DHT22;58360;0.000;0.000;2023-04-25T13:15:22;25.10;30.90
70762;DHT22;58360;0.000;0.000;2023-04-25T13:17:48;25.00;30.50
70762;DHT22;58360;0.000;0.000;2023-04-25T13:20:14;24.90;31.80
70762;DHT22;58360;0.000;0.000;2023-04-25T13:22:41;24.50;31.50
70762;DHT22;58360;0.000;0.000;2023-04-25T13:25:08;22.40;33.80
70762;DHT22;58360;0.000;0.000;2023-04-25T13:27:34;21.60;35.50
70762;DHT22;58360;0.000;0.000;2023-04-25T13:30:01;20.30;37.60
70762;DHT22;58360;0.000;0.000;2023-04-25T13:32:30;18.60;38.10
70762;DHT22;58360;0.000;0.000;2023-04-25T13:34:55;17.00;44.00
70762;DHT22;58360;0.000;0.000;2023-04-25T13:37:21;17.60;42.40
70762;DHT22;58360;0.000;0.000;2023-04-25T13:39:49;17.50;41.60
70762;DHT22;58360;0.000;0.000;2023-04-25T13:42:18;17.60;42.20
70762;DHT22;58360;0.000;0.000;2023-04-25T13:44:43;17.90;42.20
70762;DHT22;58360;0.000;0.000;2023-04-25T13:47:09;18.00;42.40
70762;DHT22;58360;0.000;0.000;2023-04-25T13:49:35;18.20;40.50
70762;DHT22;58360;0.000;0.000;2023-04-25T13:52:01;17.40;40.50
70762;DHT22;58360;0.000;0.000;2023-04-25T13:54:26;17.30;41.50
70762;DHT22;58360;0.000;0.000;2023-04-25T13:56:55;16.70;43.40
70762;DHT22;58360;0.000;0.000;2023-04-25T13:59:24;17.20;43.90
70762;DHT22;58360;0.000;0.000;2023-04-25T14:01:51;17.50;44.50
70762;DHT22;58360;0.000;0.000;2023-04-25T14:04:16;16.60;42.70
70762;DHT22;58360;0.000;0.000;2023-04-25T14:06:42;16.60;44.50
70762;DHT22;58360;0.000;0.000;2023-04-25T14:09:08;16.10;43.70
70762;DHT22;58360;0.000;0.000;2023-04-25T14:11:36;15.70;47.10
70762;DHT22;58360;0.000;0.000;2023-04-25T14:14:02;16.10;43.40
70762;DHT22;58360;0.000;0.000;2023-04-25T14:16:28;16.50;44.00
70762;DHT22;58360;0.000;0.000;2023-04-25T14:18:58;17.40;40.10
70762;DHT22;58360;0.000;0.000;2023-04-25T14:21:23;17.70;39.70
70762;DHT22;58360;0.000;0.000;2023-04-25T14:23:49;17.30;40.60
70762;DHT22;58360;0.000;0.000;2023-04-25T14:26:15;17.90;41.60
70762;DHT22;58360;0.000;0.000;2023-04-25T14:28:41;18.50;40.90
70762;DHT22;58360;0.000;0.000;2023-04-25T14:31:07;19.00;40.60
70762;DHT22;58360;0.000;0.000;2023-04-25T14:33:33;19.30;39.50
70762;DHT22;58360;0.000;0.000;2023-04-25T14:35:59;19.70;38.30
70762;DHT22;58360;0.000;0.000;2023-04-25T14:38:25;19.40;40.20
70762;DHT22;58360;0.000;0.000;2023-04-25T14:40:51;19.70;37.70
70762;DHT22;58360;0.000;0.000;2023-04-25T14:43:17;20.00;38.00
70762;DHT22;58360;0.000;0.000;2023-04-25T14:45:43;20.50;35.50
70762;DHT22;58360;0.000;0.000;2023-04-25T14:48:08;20.90;36.60
70762;DHT22;58360;0.000;0.000;2023-04-25T14:50:34;21.40;36.80
70762;DHT22;58360;0.000;0.000;2023-04-25T14:53:00;21.80;35.40
70762;DHT22;58360;0.000;0.000;2023-04-25T14:55:29;21.50;35.40
70762;DHT22;58360;0.000;0.000;2023-04-25T14:57:55;20.80;35.10
70762;DHT22;58360;0.000;0.000;2023-04-25T15:00:21;20.10;38.00
70762;DHT22;58360;0.000;0.000;2023-04-25T15:02:48;20.50;37.60
70762;DHT22;58360;0.000;0.000;2023-04-25T15:05:14;20.30;37.00
70762;DHT22;58360;0.000;0.000;2023-04-25T15:07:40;18.90;38.80
70762;DHT22;58360;0.000;0.000;2023-04-25T15:10:09;18.90;39.60
70762;DHT22;58360;0.000;0.000;2023-04-25T15:12:45;18.80;38.20
70762;DHT22;58360;0.000;0.000;2023-04-25T15:15:11;18.10;38.50
70762;DHT22;58360;0.000;0.000;2023-04-25T15:17:38;18.40;40.40
70762;DHT22;58360;0.000;0.000;2023-04-25T15:20:05;19.00;38.50
70762;DHT22;58360;0.000;0.000;2023-04-25T15:22:31;19.10;38.50
70762;DHT22;58360;0.000;0.000;2023-04-25T15:24:57;19.00;37.90
70762;DHT22;58360;0.000;0.000;2023-04-25T15:27:22;19.20;38.50
70762;DHT22;58360;0.000;0.000;2023-04-25T15:29:48;18.60;40.00
70762;DHT22;58360;0.000;0.000;2023-04-25T15:32:14;18.70;40.00
70762;DHT22;58360;0.000;0.000;2023-04-25T15:34:40;17.90;42.40
70762;DHT22;58360;0.000;0.000;2023-04-25T15:37:06;17.80;40.70
70762;DHT22;58360;0.000;0.000;2023-04-25T15:39:31;18.50;40.20
70762;DHT22;58360;0.000;0.000;2023-04-25T15:41:57;18.50;38.90
70762;DHT22;58360;0.000;0.000;2023-04-25T15:44:24;19.10;39.10
70762;DHT22;58360;0.000;0.000;2023-04-25T15:46:50;19.40;38.80
70762;DHT22;58360;0.000;0.000;2023-04-25T15:49:15;18.60;39.90
70762;DHT22;58360;0.000;0.000;2023-04-25T15:51:41;19.00;39.20
70762;DHT22;58360;0.000;0.000;2023-04-25T15:54:06;18.50;38.80
70762;DHT22;58360;0.000;0.000;2023-04-25T15:56:32;18.60;40.00
70762;DHT22;58360;0.000;0.000;2023-04-25T15:58:58;18.50;40.20
70762;DHT22;58360;0.000;0.000;2023-04-25T16:01:24;18.70;40.40